Terminal Aerodrome Forecast
Issued by NWS

Home | Current Version | Previous Version | Text Only | Print | Product List | Glossary On
Versions: 1 2 3 4 5 6 7 8 9 10 11 12 13 14 15 16 17 18 19 20
362
FTUS43 KILX 211131
TAFCMI
TAF
KCMI 211131Z 2112/2212 18012KT P6SM SCT250
     FM211700 19013G21KT P6SM SCT040
     FM220000 18006KT P6SM BKN050
     FM220600 VRB03KT 4SM BR VCSH BKN045=

USA.gov is the U.S. government's official web portal to all federal, state and local government web resources and services.